createdAt,value
2019-02-04T00:00:47.527Z,-2.00
2019-02-04T00:01:47.432Z,-2.03
2019-02-04T00:02:47.337Z,-2.05
2019-02-04T00:03:47.323Z,-2.08
2019-02-04T00:04:47.330Z,-1.98
2019-02-04T00:05:47.358Z,-2.03
2019-02-04T00:06:47.306Z,-1.95
2019-02-04T00:07:47.277Z,-1.95
2019-02-04T00:08:47.271Z,-1.93
2019-02-04T00:09:47.243Z,-1.96
2019-02-04T00:10:47.295Z,-1.99
2019-02-04T00:11:47.284Z,-1.99
2019-02-04T00:12:49.078Z,-2.08
2019-02-04T00:13:47.200Z,-2.06
2019-02-04T00:14:47.237Z,-2.06
2019-02-04T00:15:47.165Z,-2.18
2019-02-04T00:16:47.263Z,-2.14
2019-02-04T00:17:47.222Z,-2.00
2019-02-04T00:18:47.269Z,-1.93
2019-02-04T00:19:47.155Z,-1.92
2019-02-04T00:20:47.153Z,-1.90
2019-02-04T00:21:47.110Z,-1.87
2019-02-04T00:22:47.136Z,-1.87
2019-02-04T00:23:47.176Z,-2.03
2019-02-04T00:24:47.978Z,-1.96
2019-02-04T00:25:47.107Z,-1.96
2019-02-04T00:26:51.520Z,-1.99
2019-02-04T00:27:47.040Z,-1.96
2019-02-04T00:28:47.084Z,-1.92
2019-02-04T00:29:48.073Z,-1.87
2019-02-04T00:30:47.028Z,-1.90
2019-02-04T00:31:47.073Z,-1.88
2019-02-04T00:32:47.002Z,-1.84
2019-02-04T00:33:46.998Z,-1.74
2019-02-04T00:34:46.988Z,-1.74
2019-02-04T00:35:46.969Z,-1.81
2019-02-04T00:36:47.023Z,-1.87
2019-02-04T00:37:46.940Z,-1.81
2019-02-04T00:38:46.948Z,-1.82
2019-02-04T00:39:46.922Z,-1.93
2019-02-04T00:40:46.934Z,-2.14
2019-02-04T00:41:46.935Z,-2.13
2019-02-04T00:42:46.990Z,-2.26
2019-02-04T00:43:46.902Z,-2.38
2019-02-04T00:44:46.872Z,-2.36
2019-02-04T00:45:46.866Z,-2.33
2019-02-04T00:46:52.192Z,-2.32
2019-02-04T00:47:47.870Z,-2.16
2019-02-04T00:48:46.839Z,-2.11
2019-02-04T00:49:46.900Z,-2.11
2019-02-04T00:50:47.511Z,-2.16
2019-02-04T00:51:46.815Z,-2.18
2019-02-04T00:52:46.992Z,-2.14
2019-02-04T00:53:46.817Z,-2.16
2019-02-04T00:54:46.793Z,-2.05
2019-02-04T00:55:46.802Z,-2.13
2019-02-04T00:56:46.793Z,-2.13
2019-02-04T00:57:46.742Z,-2.10
2019-02-04T00:58:46.741Z,-1.99
2019-02-04T00:59:46.732Z,-1.96
2019-02-04T01:00:46.742Z,-2.02
2019-02-04T01:01:47.022Z,-1.84
2019-02-04T01:02:46.742Z,-1.95
2019-02-04T01:03:46.684Z,-1.87
2019-02-04T01:04:46.689Z,-1.85
2019-02-04T01:05:46.662Z,-1.84
2019-02-04T01:06:46.685Z,-1.80
2019-02-04T01:07:46.658Z,-1.78
2019-02-04T01:08:46.695Z,-1.81
2019-02-04T01:09:46.630Z,-1.82
2019-02-04T01:10:46.630Z,-1.77
2019-02-04T01:11:46.661Z,-1.80
2019-02-04T01:12:46.591Z,-1.75
2019-02-04T01:13:46.582Z,-1.78
2019-02-04T01:14:46.622Z,-1.78
2019-02-04T01:15:46.574Z,-1.77
2019-02-04T01:16:46.588Z,-1.84
2019-02-04T01:17:46.536Z,-1.96
2019-02-04T01:18:46.537Z,-2.00
2019-02-04T01:19:46.519Z,-2.11
2019-02-04T01:20:46.557Z,-2.17
2019-02-04T01:21:46.529Z,-2.18
2019-02-04T01:22:46.632Z,-2.16
2019-02-04T01:23:46.495Z,-2.14
2019-02-04T01:24:48.251Z,-2.21
2019-02-04T01:25:46.516Z,-2.14
2019-02-04T01:26:46.519Z,-2.11
2019-02-04T01:27:46.471Z,-2.05
2019-02-04T01:28:46.452Z,-2.03
2019-02-04T01:29:46.476Z,-2.08
2019-02-04T01:30:46.431Z,-2.13
2019-02-04T01:31:46.405Z,-2.10
2019-02-04T01:32:46.444Z,-2.10
2019-02-04T01:33:46.382Z,-2.18
2019-02-04T01:34:48.908Z,-2.14
2019-02-04T01:35:46.372Z,-2.17
2019-02-04T01:36:46.373Z,-2.11
2019-02-04T01:37:46.350Z,-2.11
2019-02-04T01:38:46.332Z,-2.17
2019-02-04T01:39:46.324Z,-2.16
2019-02-04T01:40:46.343Z,-2.29
2019-02-04T01:41:46.307Z,-2.36
2019-02-04T01:42:46.326Z,-2.45
2019-02-04T01:43:46.273Z,-2.51
2019-02-04T01:44:46.299Z,-2.53
2019-02-04T01:45:46.326Z,-2.69
2019-02-04T01:46:46.331Z,-2.68
2019-02-04T01:47:46.340Z,-2.64
2019-02-04T01:48:46.262Z,-2.74
2019-02-04T01:49:46.246Z,-2.64
2019-02-04T01:50:46.256Z,-2.72
2019-02-04T01:51:46.229Z,-2.72
2019-02-04T01:52:46.258Z,-2.86
2019-02-04T01:53:46.224Z,-2.97
2019-02-04T01:54:46.422Z,-3.02
2019-02-04T01:55:46.218Z,-2.93
2019-02-04T01:56:46.186Z,-3.00
2019-02-04T01:57:46.199Z,-2.97
2019-02-04T01:58:46.135Z,-3.02
2019-02-04T01:59:47.013Z,-3.00
2019-02-04T02:00:46.160Z,-3.23
2019-02-04T02:01:46.119Z,-3.31
2019-02-04T02:02:46.124Z,-3.31
2019-02-04T02:03:46.121Z,-3.26
2019-02-04T02:04:46.080Z,-3.20
2019-02-04T02:05:46.115Z,-3.20
2019-02-04T02:06:46.051Z,-3.25
2019-02-04T02:07:46.108Z,-3.22
2019-02-04T02:08:46.101Z,-3.33
2019-02-04T02:09:46.032Z,-3.47
2019-02-04T02:10:46.011Z,-3.39
2019-02-04T02:11:46.027Z,-3.54
2019-02-04T02:12:46.003Z,-3.47
2019-02-04T02:13:45.994Z,-3.51
2019-02-04T02:14:46.037Z,-3.61
2019-02-04T02:15:45.966Z,-3.56
2019-02-04T02:16:45.976Z,-3.51
2019-02-04T02:17:45.954Z,-3.50
2019-02-04T02:18:45.952Z,-3.65
2019-02-04T02:19:45.981Z,-3.68
2019-02-04T02:20:45.986Z,-3.70
2019-02-04T02:21:45.926Z,-3.68
2019-02-04T02:22:45.979Z,-3.64
2019-02-04T02:23:45.988Z,-3.68
2019-02-04T02:24:45.861Z,-3.78
2019-02-04T02:25:45.948Z,-3.81
2019-02-04T02:26:45.914Z,-3.72
2019-02-04T02:27:45.920Z,-3.68
2019-02-04T02:28:46.019Z,-3.64
2019-02-04T02:29:45.847Z,-3.61
2019-02-04T02:30:45.845Z,-3.56
2019-02-04T02:31:45.934Z,-3.50
2019-02-04T02:32:45.849Z,-3.44
2019-02-04T02:33:45.913Z,-3.31
2019-02-04T02:34:45.924Z,-3.23
2019-02-04T02:35:46.333Z,-3.28
2019-02-04T02:36:45.914Z,-3.28
2019-02-04T02:37:46.854Z,-3.38
2019-02-04T02:38:45.811Z,-3.32
2019-02-04T02:39:45.823Z,-3.39
2019-02-04T02:40:45.823Z,-3.44
2019-02-04T02:41:49.142Z,-3.32
2019-02-04T02:42:45.877Z,-3.29
2019-02-04T02:43:45.756Z,-3.29
2019-02-04T02:44:47.538Z,-3.26
2019-02-04T02:45:45.700Z,-3.15
2019-02-04T02:46:47.581Z,-3.20
2019-02-04T02:47:45.715Z,-3.13
2019-02-04T02:48:45.705Z,-3.08
2019-02-04T02:49:45.621Z,-3.17
2019-02-04T02:50:45.668Z,-3.26
2019-02-04T02:51:45.766Z,-3.32
2019-02-04T02:52:45.667Z,-3.31
2019-02-04T02:53:45.695Z,-3.43
2019-02-04T02:54:45.609Z,-3.47
2019-02-04T02:55:45.664Z,-3.50
2019-02-04T02:56:45.603Z,-3.60
2019-02-04T02:57:45.553Z,-3.60
2019-02-04T02:58:45.668Z,-3.71
2019-02-04T02:59:45.540Z,-3.75
2019-02-04T03:00:45.516Z,-3.75
2019-02-04T03:01:45.534Z,-3.78
2019-02-04T03:02:45.519Z,-3.78
2019-02-04T03:03:45.617Z,-3.81
2019-02-04T03:04:45.545Z,-3.89
2019-02-04T03:05:45.456Z,-3.86
2019-02-04T03:06:45.456Z,-3.86
2019-02-04T03:07:45.440Z,-3.86
2019-02-04T03:08:45.527Z,-3.90
2019-02-04T03:09:45.446Z,-3.99
2019-02-04T03:10:45.477Z,-4.02
2019-02-04T03:11:45.465Z,-3.99
2019-02-04T03:12:45.455Z,-4.05
2019-02-04T03:13:45.541Z,-4.19
2019-02-04T03:14:45.434Z,-4.38
2019-02-04T03:15:45.427Z,-4.54
2019-02-04T03:16:45.371Z,-4.61
2019-02-04T03:17:52.028Z,-4.68
2019-02-04T03:18:46.392Z,-4.71
2019-02-04T03:19:45.351Z,-4.89
2019-02-04T03:20:45.362Z,-4.83
2019-02-04T03:21:45.326Z,-4.85
2019-02-04T03:22:45.306Z,-4.73
2019-02-04T03:23:45.342Z,-4.73
2019-02-04T03:24:45.300Z,-4.73
2019-02-04T03:25:45.286Z,-4.57
2019-02-04T03:26:45.265Z,-4.44
2019-02-04T03:27:45.258Z,-4.41
2019-02-04T03:28:45.308Z,-4.18
2019-02-04T03:29:45.279Z,-4.19
2019-02-04T03:30:45.219Z,-4.22
2019-02-04T03:31:46.180Z,-4.18
2019-02-04T03:32:45.210Z,-4.20
2019-02-04T03:33:45.254Z,-4.23
2019-02-04T03:34:45.181Z,-4.28
2019-02-04T03:35:45.172Z,-4.20
2019-02-04T03:36:45.204Z,-4.28
2019-02-04T03:37:45.152Z,-4.32
2019-02-04T03:38:45.270Z,-4.33
2019-02-04T03:39:45.132Z,-4.43
2019-02-04T03:40:45.112Z,-4.50
2019-02-04T03:41:45.124Z,-4.51
2019-02-04T03:42:45.105Z,-4.57
2019-02-04T03:43:45.142Z,-4.64
2019-02-04T03:44:45.096Z,-4.51
2019-02-04T03:45:45.087Z,-4.50
2019-02-04T03:46:45.061Z,-4.51
2019-02-04T03:47:45.042Z,-4.55
2019-02-04T03:48:45.272Z,-4.58
2019-02-04T03:49:45.074Z,-4.62
2019-02-04T03:50:45.052Z,-4.66
2019-02-04T03:51:45.020Z,-4.66
2019-02-04T03:52:44.999Z,-4.71
2019-02-04T03:53:45.014Z,-4.61
2019-02-04T03:54:45.021Z,-4.66
2019-02-04T03:55:44.973Z,-4.54
2019-02-04T03:56:45.066Z,-4.51
2019-02-04T03:57:44.950Z,-4.48
2019-02-04T03:58:44.956Z,-4.48
2019-02-04T03:59:44.940Z,-4.47
2019-02-04T04:00:44.985Z,-4.50
2019-02-04T04:01:44.916Z,-4.44
2019-02-04T04:02:44.929Z,-4.38
2019-02-04T04:03:44.896Z,-4.26
2019-02-04T04:04:44.900Z,-4.20
2019-02-04T04:05:44.871Z,-4.18
2019-02-04T04:06:45.310Z,-4.12
2019-02-04T04:07:44.863Z,-3.99
2019-02-04T04:08:44.859Z,-4.04
2019-02-04T04:09:44.850Z,-3.98
2019-02-04T04:10:44.826Z,-4.02
2019-02-04T04:11:44.806Z,-3.99
2019-02-04T04:12:44.883Z,-3.98
2019-02-04T04:13:44.792Z,-3.93
2019-02-04T04:14:44.782Z,-3.86
2019-02-04T04:15:44.823Z,-3.86
2019-02-04T04:16:44.782Z,-3.78
2019-02-04T04:17:44.776Z,-3.68
2019-02-04T04:18:44.742Z,-3.65
2019-02-04T04:19:44.727Z,-3.71
2019-02-04T04:20:44.783Z,-3.62
2019-02-04T04:21:44.723Z,-3.89
2019-02-04T04:22:44.703Z,-3.96
2019-02-04T04:23:44.702Z,-4.04
2019-02-04T04:24:44.724Z,-4.05
2019-02-04T04:25:44.673Z,-4.09
2019-02-04T04:26:44.676Z,-4.11
2019-02-04T04:27:44.658Z,-4.22
2019-02-04T04:28:44.655Z,-4.41
2019-02-04T04:29:44.702Z,-4.43
2019-02-04T04:30:44.634Z,-4.36
2019-02-04T04:31:44.612Z,-4.33
2019-02-04T04:32:44.621Z,-4.57
2019-02-04T04:33:44.612Z,-4.76
2019-02-04T04:34:44.631Z,-4.97
2019-02-04T04:35:44.590Z,-5.25
2019-02-04T04:36:44.584Z,-5.41
2019-02-04T04:37:44.571Z,-5.44
2019-02-04T04:38:44.543Z,-5.44
2019-02-04T04:39:44.579Z,-5.45
2019-02-04T04:40:44.515Z,-5.47
2019-02-04T04:41:44.500Z,-5.47
2019-02-04T04:42:44.497Z,-5.41
2019-02-04T04:43:44.517Z,-5.25
2019-02-04T04:44:44.525Z,-5.16
2019-02-04T04:45:44.499Z,-5.05
2019-02-04T04:46:44.499Z,-5.11
2019-02-04T04:47:44.498Z,-5.05
2019-02-04T04:48:44.452Z,-5.16
2019-02-04T04:49:44.495Z,-5.12
2019-02-04T04:50:46.090Z,-5.22
2019-02-04T04:51:44.484Z,-5.40
2019-02-04T04:52:44.409Z,-5.40
2019-02-04T04:54:03.513Z,-5.45
2019-02-04T04:54:44.392Z,-5.56
2019-02-04T04:55:44.367Z,-5.59
2019-02-04T04:56:44.355Z,-5.61
2019-02-04T04:57:44.337Z,-5.70
2019-02-04T04:58:44.328Z,-5.70
2019-02-04T04:59:44.366Z,-5.77
2019-02-04T05:00:44.309Z,-5.67
2019-02-04T05:01:44.295Z,-5.67
2019-02-04T05:02:44.287Z,-5.54
2019-02-04T05:03:44.281Z,-5.34
2019-02-04T05:04:44.293Z,-5.25
2019-02-04T05:05:44.255Z,-5.01
2019-02-04T05:06:44.248Z,-4.98
2019-02-04T05:07:44.241Z,-5.08
2019-02-04T05:08:44.225Z,-5.41
2019-02-04T05:09:44.242Z,-5.59
2019-02-04T05:10:44.209Z,-5.63
2019-02-04T05:11:44.203Z,-5.72
2019-02-04T05:12:44.187Z,-5.73
2019-02-04T05:13:44.181Z,-5.67
2019-02-04T05:14:44.211Z,-5.70
2019-02-04T05:15:44.163Z,-5.61
2019-02-04T05:16:44.267Z,-5.69
2019-02-04T05:17:44.141Z,-5.69
2019-02-04T05:18:44.135Z,-5.76
2019-02-04T05:19:44.117Z,-5.87
2019-02-04T05:20:44.345Z,-6.02
2019-02-04T05:21:44.099Z,-6.00
2019-02-04T05:22:44.098Z,-6.06
2019-02-04T05:23:44.100Z,-5.80
2019-02-04T05:24:44.076Z,-5.76
2019-02-04T05:25:44.064Z,-5.58
2019-02-04T05:26:44.112Z,-5.49
2019-02-04T05:27:44.046Z,-5.38
2019-02-04T05:28:44.034Z,-5.23
2019-02-04T05:29:44.025Z,-5.05
2019-02-04T05:30:44.016Z,-4.89
2019-02-04T05:31:44.048Z,-4.82
2019-02-04T05:32:43.994Z,-4.76
2019-02-04T05:33:43.999Z,-4.76
2019-02-04T05:34:44.008Z,-4.64
2019-02-04T05:35:43.962Z,-4.65
2019-02-04T05:36:43.958Z,-4.55
2019-02-04T05:37:43.977Z,-4.57
2019-02-04T05:38:43.936Z,-4.46
2019-02-04T05:39:43.961Z,-4.44
2019-02-04T05:40:43.918Z,-4.43
2019-02-04T05:41:43.916Z,-4.48
2019-02-04T05:42:43.897Z,-4.48
2019-02-04T05:43:43.927Z,-4.59
2019-02-04T05:44:43.875Z,-4.62
2019-02-04T05:45:43.866Z,-4.71
2019-02-04T05:46:43.859Z,-4.71
2019-02-04T05:47:43.863Z,-4.82
2019-02-04T05:48:49.424Z,-4.87
2019-02-04T05:49:44.853Z,-4.91
2019-02-04T05:50:43.814Z,-4.93
2019-02-04T05:51:43.813Z,-5.04
2019-02-04T05:52:43.795Z,-4.95
2019-02-04T05:53:43.786Z,-5.05
2019-02-04T05:54:43.776Z,-5.08
2019-02-04T05:55:43.789Z,-5.19
2019-02-04T05:56:43.759Z,-5.31
2019-02-04T05:57:43.751Z,-5.41
2019-02-04T05:58:43.740Z,-5.41
2019-02-04T05:59:43.728Z,-5.14
2019-02-04T06:00:43.745Z,-5.19
2019-02-04T06:01:43.708Z,-5.43
2019-02-04T06:02:43.698Z,-5.43
2019-02-04T06:03:43.687Z,-5.54
2019-02-04T06:04:43.684Z,-5.54
2019-02-04T06:05:43.668Z,-5.44
2019-02-04T06:06:43.688Z,-5.56
2019-02-04T06:07:43.643Z,-5.45
2019-02-04T06:08:43.680Z,-5.41
2019-02-04T06:09:43.633Z,-5.41
2019-02-04T06:10:43.623Z,-5.38
2019-02-04T06:11:43.643Z,-5.37
2019-02-04T06:12:43.613Z,-5.40
2019-02-04T06:13:43.617Z,-5.40
2019-02-04T06:14:43.612Z,-5.37
2019-02-04T06:15:43.569Z,-5.38
2019-02-04T06:16:43.559Z,-5.41
2019-02-04T06:17:43.551Z,-5.34
2019-02-04T06:18:43.569Z,-5.40
2019-02-04T06:19:43.528Z,-5.35
2019-02-04T06:20:43.523Z,-5.43
2019-02-04T06:21:43.513Z,-5.58
2019-02-04T06:22:43.525Z,-5.63
2019-02-04T06:23:43.487Z,-5.69
2019-02-04T06:24:43.509Z,-5.97
2019-02-04T06:25:43.519Z,-6.12
2019-02-04T06:26:43.458Z,-6.12
2019-02-04T06:27:43.452Z,-6.24
2019-02-04T06:28:43.438Z,-6.19
2019-02-04T06:29:43.433Z,-6.11
2019-02-04T06:30:43.469Z,-6.02
2019-02-04T06:31:43.414Z,-5.77
2019-02-04T06:32:43.400Z,-5.77
2019-02-04T06:33:43.393Z,-5.70
2019-02-04T06:34:43.386Z,-5.65
2019-02-04T06:35:43.377Z,-5.73
2019-02-04T06:36:43.405Z,-5.72
2019-02-04T06:37:43.363Z,-5.76
2019-02-04T06:38:43.339Z,-6.23
2019-02-04T06:39:43.334Z,-6.51
2019-02-04T06:40:43.359Z,-6.82
2019-02-04T06:41:43.315Z,-6.99
2019-02-04T06:42:43.304Z,-7.05
2019-02-04T06:43:43.291Z,-7.03
2019-02-04T06:44:43.279Z,-7.10
2019-02-04T06:45:45.937Z,-7.16
2019-02-04T06:46:43.264Z,-7.26
2019-02-04T06:47:43.258Z,-7.26
2019-02-04T06:48:43.239Z,-7.26
2019-02-04T06:49:43.244Z,-7.21
2019-02-04T06:50:43.226Z,-7.05
2019-02-04T06:51:43.244Z,-7.08
2019-02-04T06:52:43.200Z,-7.13
2019-02-04T06:53:43.217Z,-7.15
2019-02-04T06:54:43.192Z,-7.27
2019-02-04T06:55:43.202Z,-7.42
2019-02-04T06:56:43.167Z,-7.45
2019-02-04T06:57:43.159Z,-7.37
2019-02-04T06:58:43.143Z,-7.56
2019-02-04T06:59:43.143Z,-7.65
2019-02-04T07:00:43.156Z,-7.74
2019-02-04T07:01:43.126Z,-7.79
2019-02-04T07:02:43.117Z,-7.68
2019-02-04T07:03:43.108Z,-7.59
2019-02-04T07:04:43.114Z,-7.37
2019-02-04T07:05:44.078Z,-7.30
2019-02-04T07:06:43.064Z,-7.15
2019-02-04T07:07:43.176Z,-6.99
2019-02-04T07:08:43.050Z,-6.84
2019-02-04T07:09:43.038Z,-6.77
2019-02-04T07:10:43.051Z,-6.59
2019-02-04T07:11:43.021Z,-6.44
2019-02-04T07:12:43.017Z,-6.33
2019-02-04T07:13:42.997Z,-6.27
2019-02-04T07:14:42.995Z,-6.05
2019-02-04T07:15:42.985Z,-6.05
2019-02-04T07:16:42.998Z,-6.01
2019-02-04T07:17:42.966Z,-6.00
2019-02-04T07:18:42.956Z,-5.88
2019-02-04T07:19:42.974Z,-5.83
2019-02-04T07:20:42.938Z,-5.76
2019-02-04T07:21:42.937Z,-5.73
2019-02-04T07:22:42.917Z,-5.74
2019-02-04T07:23:42.913Z,-5.76
2019-02-04T07:24:43.230Z,-5.67
2019-02-04T07:25:42.919Z,-5.70
2019-02-04T07:26:42.880Z,-5.82
2019-02-04T07:27:42.868Z,-6.01
2019-02-04T07:28:42.889Z,-6.09
2019-02-04T07:29:42.846Z,-6.13
2019-02-04T07:30:42.833Z,-6.11
2019-02-04T07:31:42.854Z,-6.08
2019-02-04T07:32:42.811Z,-6.11
2019-02-04T07:33:42.804Z,-6.05
2019-02-04T07:34:42.797Z,-6.09
2019-02-04T07:35:42.801Z,-5.95
2019-02-04T07:36:42.806Z,-6.05
2019-02-04T07:37:42.801Z,-6.05
2019-02-04T07:38:42.747Z,-6.16
2019-02-04T07:39:42.740Z,-6.51
2019-02-04T07:40:42.750Z,-6.71
2019-02-04T07:41:42.768Z,-6.81
2019-02-04T07:42:42.714Z,-6.85
2019-02-04T07:43:42.735Z,-6.85
2019-02-04T07:44:42.696Z,-6.85
2019-02-04T07:45:42.685Z,-6.91
2019-02-04T07:46:42.677Z,-6.99
2019-02-04T07:47:42.708Z,-6.94
2019-02-04T07:48:42.655Z,-6.88
2019-02-04T07:49:42.726Z,-6.92
2019-02-04T07:50:42.642Z,-6.74
2019-02-04T07:51:42.658Z,-6.79
2019-02-04T07:52:42.619Z,-6.66
2019-02-04T07:53:42.609Z,-6.70
2019-02-04T07:54:42.601Z,-6.77
2019-02-04T07:55:42.580Z,-6.85
2019-02-04T07:56:42.603Z,-6.84
2019-02-04T07:57:42.578Z,-6.81
2019-02-04T07:58:42.556Z,-6.77
2019-02-04T07:59:42.656Z,-6.76
2019-02-04T08:00:42.533Z,-6.76
2019-02-04T08:01:42.559Z,-6.64
2019-02-04T08:02:42.524Z,-6.51
2019-02-04T08:03:42.502Z,-6.45
2019-02-04T08:04:42.593Z,-6.39
2019-02-04T08:05:42.489Z,-6.37
2019-02-04T08:06:42.502Z,-6.39
2019-02-04T08:07:42.584Z,-6.18
2019-02-04T08:08:42.454Z,-6.16
2019-02-04T08:09:42.444Z,-6.06
2019-02-04T08:10:42.433Z,-6.11
2019-02-04T08:11:42.454Z,-6.01
2019-02-04T08:12:42.415Z,-5.94
2019-02-04T08:13:42.405Z,-5.90
2019-02-04T08:14:45.134Z,-5.77
2019-02-04T08:15:42.397Z,-5.76
2019-02-04T08:16:42.409Z,-5.73
2019-02-04T08:17:42.370Z,-5.79
2019-02-04T08:18:42.379Z,-5.74
2019-02-04T08:19:47.308Z,-5.72
2019-02-04T08:20:43.351Z,-5.59
2019-02-04T08:21:42.368Z,-5.69
2019-02-04T08:22:42.321Z,-5.79
2019-02-04T08:23:42.306Z,-5.73
2019-02-04T08:24:42.297Z,-5.79
2019-02-04T08:25:42.303Z,-5.72
2019-02-04T08:26:42.312Z,-5.74
2019-02-04T08:27:42.278Z,-5.59
2019-02-04T08:28:42.261Z,-5.56
2019-02-04T08:29:42.255Z,-5.44
2019-02-04T08:30:42.944Z,-5.35
2019-02-04T08:31:42.268Z,-5.33
2019-02-04T08:32:42.224Z,-5.34
2019-02-04T08:33:42.215Z,-5.16
2019-02-04T08:34:42.205Z,-5.22
2019-02-04T08:35:42.193Z,-5.14
2019-02-04T08:37:43.186Z,-4.75
2019-02-04T08:38:42.157Z,-4.59
2019-02-04T08:39:42.146Z,-4.59
2019-02-04T08:40:42.144Z,-4.62
2019-02-04T08:41:42.164Z,-4.64
2019-02-04T08:42:42.187Z,-4.77
2019-02-04T08:43:42.992Z,-4.71
2019-02-04T08:44:42.099Z,-4.61
2019-02-04T08:45:42.091Z,-4.48
2019-02-04T08:46:42.078Z,-4.19
2019-02-04T08:47:42.070Z,-4.11
2019-02-04T08:48:42.086Z,-3.96
2019-02-04T08:49:42.059Z,-3.94
2019-02-04T08:50:42.039Z,-3.84
2019-02-04T08:51:42.034Z,-3.68
2019-02-04T08:52:42.013Z,-3.64
2019-02-04T08:53:42.010Z,-3.51
2019-02-04T08:54:42.033Z,-3.46
2019-02-04T08:55:41.984Z,-3.44
2019-02-04T08:56:43.077Z,-3.35
2019-02-04T08:57:41.961Z,-3.23
2019-02-04T08:58:41.984Z,-3.26
2019-02-04T08:59:41.971Z,-3.17
2019-02-04T09:00:41.931Z,-3.10
2019-02-04T09:01:41.986Z,-3.04
2019-02-04T09:02:41.917Z,-3.02
2019-02-04T09:03:41.903Z,-2.94
2019-02-04T09:04:41.927Z,-2.92
2019-02-04T09:05:41.879Z,-2.96
2019-02-04T09:06:42.004Z,-2.94
2019-02-04T09:07:41.885Z,-2.93
2019-02-04T09:08:41.858Z,-3.13
2019-02-04T09:09:41.845Z,-3.28
2019-02-04T09:10:41.834Z,-3.23
2019-02-04T09:11:41.832Z,-3.28
2019-02-04T09:12:41.843Z,-3.20
2019-02-04T09:13:41.799Z,-3.00
2019-02-04T09:14:41.787Z,-2.89
2019-02-04T09:15:41.775Z,-2.85
2019-02-04T09:16:41.777Z,-2.64
2019-02-04T09:17:41.793Z,-2.71
2019-02-04T09:18:44.792Z,-2.61
2019-02-04T09:19:41.750Z,-2.58
2019-02-04T09:20:41.733Z,-2.57
2019-02-04T09:21:41.718Z,-2.56
2019-02-04T09:22:41.718Z,-2.51
2019-02-04T09:23:41.736Z,-2.45
2019-02-04T09:24:41.693Z,-2.48
2019-02-04T09:25:41.681Z,-2.29
2019-02-04T09:26:41.674Z,-2.56
2019-02-04T09:27:41.660Z,-2.54
2019-02-04T09:28:41.648Z,-2.60
2019-02-04T09:29:41.661Z,-2.57
2019-02-04T09:30:41.626Z,-2.58
2019-02-04T09:31:41.655Z,-2.69
2019-02-04T09:32:41.605Z,-2.78
2019-02-04T09:33:41.602Z,-2.75
2019-02-04T09:34:41.582Z,-2.75
2019-02-04T09:35:41.608Z,-2.63
2019-02-04T09:36:41.578Z,-2.66
2019-02-04T09:37:41.562Z,-2.57
2019-02-04T09:38:41.547Z,-2.71
2019-02-04T09:39:41.531Z,-2.87
2019-02-04T09:40:41.530Z,-2.92
2019-02-04T09:41:41.543Z,-2.89
2019-02-04T09:42:41.509Z,-2.72
2019-02-04T09:43:41.495Z,-2.50
2019-02-04T09:44:41.481Z,-2.35
2019-02-04T09:45:41.530Z,-2.26
2019-02-04T09:46:41.469Z,-2.08
2019-02-04T09:47:41.460Z,-2.10
2019-02-04T09:48:41.442Z,-2.02
2019-02-04T09:49:41.432Z,-2.06
2019-02-04T09:50:41.477Z,-1.98
2019-02-04T09:51:41.410Z,-2.13
2019-02-04T09:52:41.409Z,-2.10
2019-02-04T09:53:41.402Z,-2.05
2019-02-04T09:54:41.388Z,-2.16
2019-02-04T09:55:41.406Z,-2.36
2019-02-04T09:56:41.362Z,-2.61
2019-02-04T09:57:41.355Z,-2.64
2019-02-04T09:58:41.345Z,-2.81
2019-02-04T09:59:41.338Z,-2.87
2019-02-04T10:00:41.363Z,-2.85
2019-02-04T10:01:41.311Z,-2.89
2019-02-04T10:02:41.300Z,-2.81
2019-02-04T10:03:41.296Z,-2.78
2019-02-04T10:04:41.281Z,-2.69
2019-02-04T10:05:41.294Z,-2.61
2019-02-04T10:06:41.264Z,-2.53
2019-02-04T10:07:41.257Z,-2.29
2019-02-04T10:08:41.249Z,-2.33
2019-02-04T10:09:41.312Z,-2.45
2019-02-04T10:10:41.349Z,-2.45
2019-02-04T10:11:41.214Z,-2.56
2019-02-04T10:12:41.210Z,-2.64
2019-02-04T10:13:41.192Z,-2.64
2019-02-04T10:14:41.199Z,-2.81
2019-02-04T10:15:41.191Z,-2.78
2019-02-04T10:16:41.343Z,-2.89
2019-02-04T10:17:41.164Z,-2.96
2019-02-04T10:18:41.151Z,-3.04
2019-02-04T10:19:41.138Z,-3.00
2019-02-04T10:20:41.116Z,-3.00
2019-02-04T10:21:41.155Z,-3.07
2019-02-04T10:22:41.097Z,-2.96
2019-02-04T10:23:41.178Z,-2.93
2019-02-04T10:24:41.149Z,-2.89
2019-02-04T10:25:41.076Z,-2.82
2019-02-04T10:26:41.085Z,-2.86
2019-02-04T10:27:41.060Z,-2.76
2019-02-04T10:28:41.039Z,-2.75
2019-02-04T10:29:41.096Z,-2.74
2019-02-04T10:30:41.376Z,-2.82
2019-02-04T10:31:41.097Z,-2.74
2019-02-04T10:32:40.998Z,-2.76
2019-02-04T10:33:40.990Z,-2.86
2019-02-04T10:34:40.999Z,-2.71
2019-02-04T10:35:40.978Z,-2.68
2019-02-04T10:36:40.994Z,-2.57
2019-02-04T10:37:40.951Z,-2.54
2019-02-04T10:38:40.941Z,-2.54
2019-02-04T10:39:40.954Z,-2.57
2019-02-04T10:40:41.018Z,-2.47
2019-02-04T10:41:40.969Z,-2.50
2019-02-04T10:42:40.944Z,-2.42
2019-02-04T10:43:40.947Z,-2.32
2019-02-04T10:44:40.916Z,-2.35
2019-02-04T10:45:40.878Z,-2.36
2019-02-04T10:46:40.906Z,-2.35
2019-02-04T10:47:40.883Z,-2.32
2019-02-04T10:48:40.929Z,-2.16
2019-02-04T10:49:40.849Z,-2.05
2019-02-04T10:50:46.407Z,-1.99
2019-02-04T10:51:41.813Z,-1.90
2019-02-04T10:52:40.794Z,-1.88
2019-02-04T10:53:40.817Z,-1.72
2019-02-04T10:54:40.823Z,-1.41
2019-02-04T10:55:40.814Z,-1.27
2019-02-04T10:56:40.755Z,-1.20
2019-02-04T10:57:40.971Z,-1.12
2019-02-04T10:58:40.764Z,-0.92
2019-02-04T10:59:40.753Z,-0.87
2019-02-04T11:00:40.727Z,-0.83
2019-02-04T11:01:40.774Z,-0.75
2019-02-04T11:02:40.719Z,-0.55
2019-02-04T11:03:40.731Z,-0.51
2019-02-04T11:04:40.695Z,-0.47
2019-02-04T11:05:40.674Z,-0.42
2019-02-04T11:06:40.694Z,-0.24
2019-02-04T11:07:40.686Z,-0.24
2019-02-04T11:08:40.648Z,-0.33
2019-02-04T11:09:40.640Z,-0.29
2019-02-04T11:10:40.662Z,-0.26
2019-02-04T11:11:40.637Z,-0.29
2019-02-04T11:12:40.625Z,-0.27
2019-02-04T11:13:40.758Z,-0.18
2019-02-04T11:14:40.627Z,-0.15
2019-02-04T11:15:40.628Z,0.00
2019-02-04T11:16:40.611Z,0.09
2019-02-04T11:17:40.550Z,0.07
2019-02-04T11:18:40.544Z,0.09
2019-02-04T11:19:40.572Z,0.09
2019-02-04T11:20:40.515Z,0.13
2019-02-04T11:21:40.558Z,0.13
2019-02-04T11:22:40.642Z,0.09
2019-02-04T11:23:40.491Z,0.12
2019-02-04T11:24:40.540Z,0.10
2019-02-04T11:25:40.519Z,0.16
2019-02-04T11:26:40.506Z,0.15
2019-02-04T11:27:40.470Z,0.27
2019-02-04T11:28:40.443Z,0.16
2019-02-04T11:29:40.459Z,0.30
2019-02-04T11:30:40.459Z,0.39
2019-02-04T11:31:40.461Z,0.38
2019-02-04T11:32:40.393Z,0.30
2019-02-04T11:33:40.423Z,0.30
2019-02-04T11:34:40.412Z,0.18
2019-02-04T11:35:40.370Z,0.06
2019-02-04T11:36:40.401Z,0.15
2019-02-04T11:37:40.355Z,-0.01
2019-02-04T11:38:40.397Z,0.00
2019-02-04T11:39:40.335Z,-0.08
2019-02-04T11:40:40.316Z,-0.13
2019-02-04T11:41:40.367Z,-0.15
2019-02-04T11:42:40.305Z,-0.04
2019-02-04T11:43:40.326Z,0.07
2019-02-04T11:44:40.310Z,0.30
2019-02-04T11:45:40.304Z,0.21
2019-02-04T11:46:40.309Z,0.31
2019-02-04T11:47:40.306Z,0.28
2019-02-04T11:48:40.261Z,0.39
2019-02-04T11:49:40.233Z,0.41
2019-02-04T11:50:40.216Z,0.41
2019-02-04T11:51:40.204Z,0.43
2019-02-04T11:52:40.218Z,0.39
2019-02-04T11:53:40.204Z,0.41
2019-02-04T11:54:40.183Z,0.45
2019-02-04T11:55:40.188Z,0.48
2019-02-04T11:56:40.154Z,0.48
2019-02-04T11:57:40.245Z,0.58
2019-02-04T11:58:40.130Z,0.49
2019-02-04T11:59:40.129Z,0.43
2019-02-04T12:00:40.112Z,0.43
2019-02-04T12:01:40.110Z,0.39
2019-02-04T12:02:40.126Z,0.49
2019-02-04T12:03:40.082Z,0.49
2019-02-04T12:04:40.144Z,0.49
2019-02-04T12:05:41.986Z,0.41
2019-02-04T12:06:40.051Z,0.38
2019-02-04T12:07:40.069Z,0.43
2019-02-04T12:08:40.043Z,0.48
2019-02-04T12:09:40.022Z,0.51
2019-02-04T12:10:40.030Z,0.49
2019-02-04T12:11:40.024Z,0.53
2019-02-04T12:12:40.031Z,0.58
2019-02-04T12:13:40.004Z,0.64
2019-02-04T12:14:39.985Z,0.83
2019-02-04T12:15:39.970Z,0.61
2019-02-04T12:16:39.959Z,0.61
2019-02-04T12:17:39.980Z,0.62
2019-02-04T12:18:39.946Z,0.70
2019-02-04T12:19:39.928Z,0.82
2019-02-04T12:20:40.162Z,0.79
2019-02-04T12:21:39.908Z,0.83
2019-02-04T12:22:39.930Z,0.83
2019-02-04T12:23:39.884Z,0.89
2019-02-04T12:24:39.874Z,0.94
2019-02-04T12:25:39.903Z,0.94
2019-02-04T12:26:39.852Z,1.00
2019-02-04T12:27:39.843Z,1.00
2019-02-04T12:28:39.868Z,1.00
2019-02-04T12:29:39.820Z,0.86
2019-02-04T12:30:39.850Z,0.83
2019-02-04T12:31:39.807Z,0.76
2019-02-04T12:32:39.836Z,0.62
2019-02-04T12:33:39.786Z,0.82
2019-02-04T12:34:39.799Z,0.82
2019-02-04T12:35:39.778Z,0.72
2019-02-04T12:36:39.751Z,0.82
2019-02-04T12:37:39.776Z,0.92
2019-02-04T12:38:39.741Z,1.04
2019-02-04T12:39:39.726Z,1.21
2019-02-04T12:40:39.905Z,1.10
2019-02-04T12:41:39.704Z,1.15
2019-02-04T12:42:39.717Z,1.16
2019-02-04T12:43:39.692Z,1.15
2019-02-04T12:44:39.674Z,1.07
2019-02-04T12:45:39.672Z,1.16
2019-02-04T12:46:39.645Z,1.19
2019-02-04T12:47:39.679Z,1.26
2019-02-04T12:48:39.637Z,1.24
2019-02-04T12:49:39.627Z,1.08
2019-02-04T12:50:39.608Z,1.03
2019-02-04T12:51:39.603Z,0.88
2019-02-04T12:52:39.635Z,0.82
2019-02-04T12:53:39.586Z,0.79
2019-02-04T12:54:39.570Z,0.90
2019-02-04T12:55:39.574Z,0.86
2019-02-04T12:56:39.564Z,0.68